Time;durP1;ratioP1;P1;durP2;ratioP2;P2;SDS_P1;SDS_P2;PMS_P1;PMS_P2;Temp;Humidity;BMP_temperature;BMP_pressure;BME280_temperature;BME280_humidity;BME280_pressure;Samples;Min_cycle;Max_cycle;Signal;HPM_P1;HPM_P2
2022/10/19 00:01:30;;;;;;;24.67;13.97;;;;;;;17.88;87.13;101353.88;4985135;28;20396;-74
2022/10/19 00:03:55;;;;;;;22.60;13.80;;;;;;;17.89;87.14;101348.13;4981052;28;20882;-73
2022/10/19 00:06:24;;;;;;;21.47;12.77;;;;;;;17.93;87.06;101349.22;4979856;28;20473;-74
2022/10/19 00:08:51;;;;;;;17.70;12.57;;;;;;;17.92;86.99;101344.81;4987461;28;20424;-74
2022/10/19 00:11:17;;;;;;;16.65;12.10;;;;;;;17.91;86.93;101351.44;4977126;28;20459;-74
2022/10/19 00:13:42;;;;;;;16.70;12.83;;;;;;;17.88;87.05;101351.94;4977066;28;20903;-74
2022/10/19 00:16:13;;;;;;;22.33;13.07;;;;;;;17.84;87.11;101353.59;4979188;28;20399;-74
2022/10/19 00:18:40;;;;;;;18.38;12.55;;;;;;;17.82;87.52;101361.25;4991233;28;20509;-74
2022/10/19 00:21:08;;;;;;;22.00;12.40;;;;;;;17.87;87.17;101357.72;4991559;28;20391;-74
2022/10/19 00:23:33;;;;;;;20.02;12.75;;;;;;;17.80;87.32;101360.72;4994072;28;20425;-74
2022/10/19 00:25:59;;;;;;;16.93;12.60;;;;;;;17.74;87.98;101359.06;4992112;28;20766;-74
2022/10/19 00:28:25;;;;;;;19.27;12.75;;;;;;;17.75;88.00;101357.94;4989774;28;20464;-74
2022/10/19 00:30:50;;;;;;;16.92;12.23;;;;;;;17.75;87.89;101354.41;4991526;28;20401;-74
2022/10/19 00:33:21;;;;;;;19.40;12.50;;;;;;;17.74;87.76;101348.09;4991560;28;20401;-74
2022/10/19 00:35:51;;;;;;;18.63;12.48;;;;;;;17.76;87.92;101353.28;4989280;28;20922;-74
2022/10/19 00:38:17;;;;;;;17.57;12.53;;;;;;;17.72;88.21;101352.19;4990759;28;20951;-74
2022/10/19 00:40:43;;;;;;;21.05;13.40;;;;;;;17.77;87.97;101354.94;4991481;28;20403;-74
2022/10/19 00:43:14;;;;;;;17.20;12.37;;;;;;;17.75;88.02;101357.16;4973671;28;20427;-74
2022/10/19 00:45:39;;;;;;;18.15;11.98;;;;;;;17.77;87.98;101352.22;4988064;28;20396;-74
2022/10/19 00:48:05;;;;;;;16.73;12.45;;;;;;;17.80;88.10;101357.16;4991484;28;20773;-74
2022/10/19 00:50:31;;;;;;;19.10;13.57;;;;;;;17.80;87.62;101355.22;4985693;28;20389;-74
2022/10/19 00:52:56;;;;;;;16.33;12.93;;;;;;;17.78;87.80;101357.44;4976673;28;21011;-74
2022/10/19 00:55:23;;;;;;;17.67;13.25;;;;;;;17.79;87.72;101350.84;4983608;28;20405;-74
2022/10/19 00:57:48;;;;;;;20.63;13.80;;;;;;;17.75;88.00;101355.22;4983254;28;20493;-74
2022/10/19 01:00:13;;;;;;;17.23;13.25;;;;;;;17.76;87.85;101350.56;4986303;28;20550;-74
2022/10/19 01:02:39;;;;;;;15.93;13.07;;;;;;;17.73;88.06;101348.34;4976035;28;20395;-74
2022/10/19 01:05:05;;;;;;;17.57;13.37;;;;;;;17.72;87.95;101343.94;4976909;28;20465;-74
2022/10/19 01:07:31;;;;;;;19.03;13.60;;;;;;;17.71;87.99;101334.94;4980899;28;20821;-74
2022/10/19 01:09:58;;;;;;;19.27;13.87;;;;;;;17.69;87.95;101334.38;4991363;28;20813;-74
2022/10/19 01:13:02;;;;;;;18.27;13.30;;;;;;;17.65;88.18;101343.41;4990648;28;20395;-74
2022/10/19 01:15:52;;;;;;;17.95;12.93;;;;;;;17.63;88.33;101339.03;4989164;28;20396;-74
2022/10/19 01:19:08;;;;;;;15.63;12.45;;;;;;;17.63;88.19;101344.50;4987016;28;20411;-74
2022/10/19 01:22:05;;;;;;;14.52;12.18;;;;;;;17.62;88.30;101340.09;4932888;29;20482;-74
2022/10/19 01:24:56;;;;;;;16.00;13.10;;;;;;;17.63;88.19;101339.03;4954515;28;20842;-74
2022/10/19 01:27:27;;;;;;;15.70;12.77;;;;;;;17.63;88.12;101338.19;4991674;28;20469;-74
2022/10/19 01:29:58;;;;;;;18.05;12.75;;;;;;;17.56;88.33;101340.34;4984507;28;20475;-74
2022/10/19 01:32:34;;;;;;;17.27;12.80;;;;;;;17.57;88.36;101337.38;4974594;28;20408;-74
2022/10/19 01:35:17;;;;;;;17.08;12.95;;;;;;;17.55;88.42;101335.97;4989279;28;20398;-74
2022/10/19 01:37:49;;;;;;;15.57;13.63;;;;;;;17.52;88.48;101326.34;4987527;28;20743;-74
2022/10/19 01:40:31;;;;;;;15.57;13.65;;;;;;;17.55;88.54;101328.56;4988273;28;20410;-74
2022/10/19 01:42:59;;;;;;;15.37;13.77;;;;;;;17.57;88.32;101326.41;4971777;28;20982;-74
2022/10/19 01:45:39;;;;;;;16.70;13.95;;;;;;;17.58;88.42;101317.06;4990339;28;20409;-74
2022/10/19 01:48:14;;;;;;;18.23;14.02;;;;;;;17.58;88.15;101308.84;4976839;28;20510;-74
2022/10/19 01:50:49;;;;;;;21.13;14.50;;;;;;;17.55;88.32;101312.13;4977457;28;20886;-74
2022/10/19 01:53:18;;;;;;;19.58;14.30;;;;;;;17.56;88.23;101304.72;4975419;28;20437;-74
2022/10/19 01:55:47;;;;;;;18.13;14.25;;;;;;;17.57;87.78;101303.66;4975240;28;20443;-74
2022/10/19 01:58:16;;;;;;;23.20;15.13;;;;;;;17.52;88.19;101304.41;4988453;28;20424;-74
2022/10/19 02:00:45;;;;;;;18.50;13.60;;;;;;;17.52;88.20;101306.31;4990560;28;20395;-74
2022/10/19 02:03:11;;;;;;;17.73;14.10;;;;;;;17.53;88.32;101306.06;4989681;28;20921;-74
2022/10/19 02:05:39;;;;;;;18.73;14.10;;;;;;;17.52;88.06;101298.94;4992372;28;20459;-74
2022/10/19 02:08:10;;;;;;;17.48;14.68;;;;;;;17.53;88.24;101302.50;4990000;28;20577;-74
2022/10/19 02:10:38;;;;;;;19.33;14.55;;;;;;;17.48;88.29;101313.47;4993363;28;20399;-74
2022/10/19 02:13:05;;;;;;;18.13;14.07;;;;;;;17.43;88.81;101305.22;4984615;28;20430;-74
2022/10/19 02:15:34;;;;;;;18.85;13.73;;;;;;;17.49;88.75;101306.88;4975043;28;20396;-74
2022/10/19 02:18:00;;;;;;;19.27;14.63;;;;;;;17.53;88.21;101307.97;4989008;28;20421;-74
2022/10/19 02:20:27;;;;;;;18.27;14.00;;;;;;;17.50;88.34;101303.03;4977084;28;20880;-74
2022/10/19 02:22:52;;;;;;;19.20;15.00;;;;;;;17.49;88.21;101304.94;4974946;28;20416;-74
2022/10/19 02:25:18;;;;;;;20.33;14.73;;;;;;;17.49;88.06;101304.13;4975017;28;20400;-74
2022/10/19 02:27:44;;;;;;;18.05;14.18;;;;;;;17.48;88.18;101303.31;4987336;28;20761;-74
2022/10/19 02:30:16;;;;;;;21.92;15.00;;;;;;;17.45;88.15;101295.63;4978550;28;20417;-74
2022/10/19 02:32:42;;;;;;;17.38;14.73;;;;;;;17.34;88.47;101291.22;4989831;28;20399;-74
2022/10/19 02:35:09;;;;;;;19.40;15.10;;;;;;;17.32;88.62;101281.63;4989903;28;20433;-74
2022/10/19 02:37:35;;;;;;;22.33;15.60;;;;;;;17.31;88.72;101290.94;4988552;28;20948;-74
2022/10/19 02:40:00;;;;;;;29.23;16.20;;;;;;;17.26;88.94;101279.94;4989307;28;20455;-74
2022/10/19 02:42:51;;;;;;;22.20;15.53;;;;;;;17.27;88.99;101279.69;4957484;28;20456;-74
2022/10/19 02:45:22;;;;;;;18.73;15.80;;;;;;;17.32;88.62;101282.44;4973681;28;20446;-74
2022/10/19 02:48:01;;;;;;;21.77;16.38;;;;;;;17.32;88.35;101273.41;4990787;28;20421;-74
2022/10/19 02:50:26;;;;;;;22.93;16.60;;;;;;;17.27;88.23;101268.72;4989613;28;20403;-74
2022/10/19 02:52:51;;;;;;;20.70;16.43;;;;;;;17.22;88.51;101267.91;4989646;28;20429;-74
2022/10/19 02:55:17;;;;;;;23.37;17.10;;;;;;;17.15;88.46;101262.69;4989469;28;20414;-74
2022/10/19 02:57:42;;;;;;;21.60;16.20;;;;;;;17.21;88.66;101256.13;4989070;28;20414;-74
2022/10/19 03:00:08;;;;;;;22.97;16.73;;;;;;;17.26;88.18;101252.56;4989791;28;20431;-74
2022/10/19 03:02:34;;;;;;;24.52;16.80;;;;;;;17.23;88.01;101261.31;4989472;28;20394;-74
2022/10/19 03:04:59;;;;;;;24.63;16.58;;;;;;;17.17;88.26;101254.19;4988818;28;20402;-74
2022/10/19 03:07:25;;;;;;;21.17;16.43;;;;;;;17.21;88.28;101253.38;4987232;28;20410;-74
2022/10/19 03:09:50;;;;;;;25.23;16.77;;;;;;;17.16;87.79;101256.09;4992105;28;20438;-74
2022/10/19 03:12:16;;;;;;;23.83;16.33;;;;;;;17.16;88.05;101247.88;4995108;28;20493;-74
2022/10/19 03:14:41;;;;;;;21.50;15.80;;;;;;;17.15;88.00;101245.41;4993026;28;20830;-74
2022/10/19 03:17:07;;;;;;;24.48;16.95;;;;;;;17.19;87.61;101244.59;4991125;28;20403;-74
2022/10/19 03:19:34;;;;;;;25.02;17.17;;;;;;;17.24;87.40;101246.53;4992884;28;20465;-74
2022/10/19 03:21:59;;;;;;;22.48;15.85;;;;;;;17.24;87.16;101255.56;4992829;28;20448;-74
2022/10/19 03:24:25;;;;;;;23.70;17.13;;;;;;;17.25;86.88;101253.66;4992814;28;20414;-74
2022/10/19 03:26:50;;;;;;;25.00;16.65;;;;;;;17.21;86.93;101245.16;4991863;28;20407;-74
2022/10/19 03:29:16;;;;;;;23.30;15.57;;;;;;;17.17;87.47;101244.03;4994777;28;20434;-74
2022/10/19 03:31:41;;;;;;;22.53;15.07;;;;;;;17.23;87.05;101245.69;4992757;28;20544;-74
2022/10/19 03:34:06;;;;;;;28.50;16.40;;;;;;;17.31;86.68;101247.94;4992738;28;20457;-74
2022/10/19 03:36:35;;;;;;;25.37;16.33;;;;;;;17.23;86.76;101234.75;4991664;28;20468;-74
2022/10/19 03:39:12;;;;;;;24.45;16.58;;;;;;;17.24;86.52;101239.16;4989752;28;20693;-74
2022/10/19 03:41:38;;;;;;;26.67;17.23;;;;;;;17.26;86.45;101233.38;4991855;28;20766;-74
2022/10/19 03:44:05;;;;;;;29.97;17.27;;;;;;;17.22;86.67;101227.66;4989861;28;20432;-74
2022/10/19 03:46:31;;;;;;;27.27;17.13;;;;;;;17.27;86.50;101224.06;4971454;28;20510;-74
2022/10/19 03:48:56;;;;;;;24.13;16.10;;;;;;;17.23;86.43;101229.28;4971297;28;20405;-74
2022/10/19 03:51:24;;;;;;;34.70;16.30;;;;;;;17.22;86.28;101224.91;4970579;28;20405;-74
2022/10/19 03:53:54;;;;;;;23.90;15.40;;;;;;;17.23;86.63;101233.91;4957967;28;20398;-74
2022/10/19 03:56:23;;;;;;;26.00;16.98;;;;;;;17.18;86.52;101240.22;4972562;28;20463;-74
2022/10/19 03:58:50;;;;;;;27.40;16.27;;;;;;;17.27;86.25;101232.28;4971231;28;20400;-74
2022/10/19 04:01:21;;;;;;;25.00;15.95;;;;;;;17.30;85.86;101239.97;4972625;28;20396;-74
2022/10/19 04:03:46;;;;;;;26.38;16.13;;;;;;;17.29;85.92;101247.34;4974801;28;20483;-74
2022/10/19 04:06:14;;;;;;;26.55;15.93;;;;;;;17.27;85.93;101249.56;4968203;28;20965;-74
2022/10/19 04:08:40;;;;;;;26.85;15.98;;;;;;;17.21;85.93;101241.59;4972628;28;20388;-74
2022/10/19 04:11:14;;;;;;;31.10;16.77;;;;;;;17.10;86.53;101244.31;4972469;28;20483;-74
2022/10/19 04:13:39;;;;;;;28.75;15.88;;;;;;;17.10;86.49;101249.78;4972414;28;20479;-74
2022/10/19 04:16:06;;;;;;;23.38;15.48;;;;;;;17.12;86.65;101246.78;4959149;28;20966;-74
2022/10/19 04:18:31;;;;;;;23.65;16.85;;;;;;;17.14;86.52;101241.84;4971820;28;21010;-74
2022/10/19 04:20:58;;;;;;;24.67;16.15;;;;;;;17.19;86.28;101241.06;4968389;28;20559;-74
2022/10/19 04:23:28;;;;;;;25.13;15.95;;;;;;;17.19;86.32;101241.06;4970830;28;20522;-74
2022/10/19 04:26:01;;;;;;;26.33;16.20;;;;;;;17.20;86.14;101239.94;4968070;28;20408;-74
2022/10/19 04:28:26;;;;;;;22.55;15.85;;;;;;;17.12;86.08;101239.38;4977450;28;20484;-74
2022/10/19 04:30:52;;;;;;;23.20;15.82;;;;;;;17.07;86.43;101235.78;4971638;28;20495;-74
2022/10/19 04:33:17;;;;;;;25.70;15.93;;;;;;;17.05;86.67;101233.34;4973517;28;20419;-75
2022/10/19 04:35:42;;;;;;;22.30;16.17;;;;;;;17.03;86.40;101227.28;4973481;28;20495;-74
2022/10/19 04:38:07;;;;;;;22.38;14.95;;;;;;;17.00;86.71;101232.47;4957395;28;20500;-74
2022/10/19 04:40:35;;;;;;;23.97;15.70;;;;;;;16.98;86.60;101231.94;4957195;28;20402;-74
2022/10/19 04:43:00;;;;;;;23.95;15.40;;;;;;;16.93;86.76;101230.00;4964629;28;20415;-74
2022/10/19 04:45:26;;;;;;;26.80;16.20;;;;;;;16.93;86.97;101231.91;4979599;28;20930;-74
2022/10/19 04:47:55;;;;;;;23.67;15.67;;;;;;;16.91;87.10;101240.41;4970142;28;20406;-74
2022/10/19 04:50:20;;;;;;;22.63;16.50;;;;;;;16.88;87.05;101237.38;4981390;28;20406;-74
2022/10/19 04:52:46;;;;;;;23.55;15.88;;;;;;;16.87;87.52;101244.75;4981955;28;20410;-73
2022/10/19 04:55:11;;;;;;;22.27;15.83;;;;;;;16.90;87.08;101244.22;4981154;28;20961;-74
2022/10/19 04:57:36;;;;;;;23.73;15.50;;;;;;;16.93;87.17;101246.44;4979567;28;20410;-73
2022/10/19 05:00:03;;;;;;;25.07;15.87;;;;;;;17.00;86.57;101244.25;4988451;28;20473;-73
2022/10/19 05:02:28;;;;;;;22.13;14.93;;;;;;;16.98;86.40;101245.63;4985644;28;20909;-74
2022/10/19 05:04:53;;;;;;;27.10;16.37;;;;;;;16.95;86.52;101246.16;4986214;28;20574;-75
2022/10/19 05:07:19;;;;;;;23.13;15.65;;;;;;;16.93;86.72;101242.84;4984442;28;20414;-74
2022/10/19 05:09:44;;;;;;;26.67;15.93;;;;;;;16.97;86.52;101246.72;4984430;28;20894;-74
2022/10/19 05:12:09;;;;;;;24.30;15.50;;;;;;;16.98;86.41;101237.41;4988939;28;20416;-74
2022/10/19 05:14:34;;;;;;;27.23;16.57;;;;;;;16.94;86.52;101239.88;4973263;28;20504;-74
2022/10/19 05:17:00;;;;;;;26.27;16.03;;;;;;;16.92;86.65;101233.84;4989258;28;20790;-73
2022/10/19 05:19:25;;;;;;;28.20;16.57;;;;;;;16.93;86.68;101240.94;4989416;28;20418;-75
2022/10/19 05:21:50;;;;;;;26.50;17.07;;;;;;;16.92;86.80;101235.75;4989047;28;20406;-74
2022/10/19 05:24:16;;;;;;;36.22;17.73;;;;;;;16.88;86.82;101238.19;4987606;28;20466;-76
2022/10/19 05:26:41;;;;;;;28.47;16.73;;;;;;;16.89;87.03;101241.78;4983299;28;20404;-73
2022/10/19 05:29:10;;;;;;;26.57;15.60;;;;;;;16.87;87.38;101241.19;4991119;28;20421;-74
2022/10/19 05:31:35;;;;;;;29.60;16.58;;;;;;;16.86;86.98;101232.16;4960468;28;20404;-73
2022/10/19 05:34:02;;;;;;;27.90;15.30;;;;;;;16.91;86.84;101234.09;4988424;28;20425;-73
2022/10/19 05:36:33;;;;;;;27.10;15.88;;;;;;;16.92;86.73;101235.75;4989282;28;20555;-73
2022/10/19 05:39:01;;;;;;;23.85;15.30;;;;;;;16.98;86.38;101230.03;4991704;28;20418;-74
2022/10/19 05:41:26;;;;;;;24.13;15.35;;;;;;;17.01;86.30;101231.41;4980885;28;20416;-73
2022/10/19 05:43:57;;;;;;;25.87;15.50;;;;;;;17.00;86.28;101224.25;4985394;28;20453;-73
2022/10/19 05:46:23;;;;;;;28.08;18.35;;;;;;;16.95;86.52;101229.75;4985797;28;20868;-74
2022/10/19 05:48:48;;;;;;;31.15;19.00;;;;;;;16.95;86.55;101227.84;4971024;28;20468;-73
2022/10/19 05:51:17;;;;;;;30.50;20.73;;;;;;;16.96;86.58;101223.97;4985092;28;20410;-74
2022/10/19 05:53:43;;;;;;;31.85;18.13;;;;;;;16.93;86.58;101219.03;4986836;28;20425;-74
2022/10/19 05:56:13;;;;;;;31.45;19.02;;;;;;;16.97;86.40;101225.63;4973724;28;20411;-74
2022/10/19 05:58:38;;;;;;;29.20;18.52;;;;;;;16.95;86.50;101224.25;4987715;28;20747;-74
2022/10/19 06:01:04;;;;;;;34.30;19.57;;;;;;;16.94;86.68;101226.19;4984765;28;20414;-74
2022/10/19 06:03:29;;;;;;;29.35;19.35;;;;;;;16.92;86.80;101222.91;4972583;28;20506;-74
2022/10/19 06:05:55;;;;;;;30.77;19.20;;;;;;;16.90;86.86;101233.28;4981774;28;20400;-74
2022/10/19 06:08:22;;;;;;;25.00;18.55;;;;;;;16.88;86.83;101229.16;4986621;28;20948;-74
2022/10/19 06:10:48;;;;;;;26.65;18.23;;;;;;;16.86;87.10;101228.63;4985077;28;20406;-74
2022/10/19 06:13:15;;;;;;;26.65;17.48;;;;;;;16.88;86.84;101232.72;4990506;28;20437;-74
2022/10/19 06:15:40;;;;;;;31.92;18.13;;;;;;;16.86;87.01;101240.38;4991625;28;20413;-74
2022/10/19 06:18:07;;;;;;;32.50;18.43;;;;;;;16.87;86.85;101230.25;4981904;28;20415;-74
2022/10/19 06:20:37;;;;;;;27.75;18.20;;;;;;;16.90;86.94;101237.91;4984816;28;20404;-73
2022/10/19 06:23:04;;;;;;;23.63;17.05;;;;;;;16.92;86.89;101241.22;4986543;28;20419;-74
2022/10/19 06:25:30;;;;;;;30.30;17.95;;;;;;;16.97;86.53;101250.28;4986436;28;20418;-74
2022/10/19 06:27:55;;;;;;;30.00;16.95;;;;;;;16.98;86.59;101243.72;4986348;28;20991;-73
2022/10/19 06:30:20;;;;;;;25.50;17.20;;;;;;;16.99;86.21;101233.59;4988197;28;20925;-73
2022/10/19 06:32:45;;;;;;;22.27;16.13;;;;;;;16.93;86.54;101243.69;4985528;28;20425;-73
2022/10/19 06:35:11;;;;;;;27.07;16.33;;;;;;;16.94;86.27;101239.03;4985384;28;20871;-73
2022/10/19 06:37:36;;;;;;;24.40;15.50;;;;;;;16.94;86.28;101244.50;4985404;28;20437;-74
2022/10/19 06:40:02;;;;;;;22.33;15.27;;;;;;;17.01;85.91;101245.09;4979570;28;20475;-73
2022/10/19 06:42:27;;;;;;;24.73;16.48;;;;;;;16.93;86.12;101249.16;4986442;28;20419;-73
2022/10/19 06:44:52;;;;;;;26.20;15.63;;;;;;;16.93;86.22;101251.06;4990452;28;20437;-73
2022/10/19 06:47:18;;;;;;;23.40;15.57;;;;;;;16.97;86.04;101247.53;4994770;28;20842;-73
2022/10/19 06:49:44;;;;;;;23.30;15.77;;;;;;;17.00;85.95;101244.25;4990606;28;20392;-74
2022/10/19 06:52:09;;;;;;;21.55;14.43;;;;;;;17.03;85.63;101253.84;4993729;28;21281;-74
2022/10/19 06:54:34;;;;;;;25.23;15.17;;;;;;;17.02;85.56;101253.06;4975386;28;20913;-74
2022/10/19 06:57:00;;;;;;;23.43;13.73;;;;;;;17.03;85.48;101260.16;4993579;28;20414;-73
2022/10/19 06:59:25;;;;;;;20.87;14.23;;;;;;;17.06;85.44;101256.06;4992039;28;20400;-74
2022/10/19 07:01:50;;;;;;;19.90;13.50;;;;;;;17.04;85.21;101253.59;4987899;28;20406;-74
2022/10/19 07:04:15;;;;;;;23.13;13.30;;;;;;;17.02;85.35;101254.97;4989477;28;20480;-74
2022/10/19 07:06:41;;;;;;;17.03;12.37;;;;;;;17.01;85.31;101248.66;4993162;28;21010;-74
2022/10/19 07:09:06;;;;;;;22.87;13.07;;;;;;;17.04;84.91;101248.13;4989830;28;20513;-74
2022/10/19 07:11:31;;;;;;;20.17;12.83;;;;;;;17.12;84.84;101255.00;4991357;28;20404;-74
2022/10/19 07:13:57;;;;;;;23.23;13.93;;;;;;;17.18;84.49;101253.91;4993286;28;20445;-74
2022/10/19 07:16:22;;;;;;;21.50;12.80;;;;;;;17.27;84.39;101260.50;4993361;28;20485;-74
2022/10/19 07:18:59;;;;;;;20.17;12.80;;;;;;;17.36;84.13;101245.19;4984139;28;20899;-76
2022/10/19 07:21:24;;;;;;;22.25;13.52;;;;;;;17.45;83.88;101245.50;4987252;28;20394;-74
2022/10/19 07:23:50;;;;;;;24.27;13.27;;;;;;;17.53;83.61;101250.44;4991281;28;20968;-75
2022/10/19 07:26:19;;;;;;;19.15;12.73;;;;;;;17.63;83.36;101243.09;4975465;28;20410;-75
2022/10/19 07:28:46;;;;;;;20.93;12.67;;;;;;;17.71;82.95;101233.50;4988869;28;20468;-75
2022/10/19 07:31:16;;;;;;;17.33;12.18;;;;;;;17.75;82.96;101233.78;4993427;28;20877;-74
2022/10/19 07:33:41;;;;;;;21.88;11.90;;;;;;;17.82;82.81;101232.38;4993162;28;20415;-75
2022/10/19 07:36:09;;;;;;;15.97;11.60;;;;;;;17.95;82.44;101242.81;4990160;28;20430;-74
2022/10/19 07:38:35;;;;;;;19.48;12.27;;;;;;;17.95;82.14;101247.47;4990766;28;20548;-75
2022/10/19 07:41:02;;;;;;;16.70;11.90;;;;;;;17.88;82.24;101242.25;4975661;28;20966;-74
2022/10/19 07:43:27;;;;;;;18.10;12.52;;;;;;;17.84;82.26;101243.09;4988182;28;20430;-75
2022/10/19 07:46:00;;;;;;;19.97;12.27;;;;;;;17.73;82.41;101242.25;4978866;28;20431;-74
2022/10/19 07:48:26;;;;;;;16.92;12.27;;;;;;;17.68;82.40;101236.78;4989257;28;20916;-75
2022/10/19 07:50:51;;;;;;;24.15;13.00;;;;;;;17.65;82.43;101237.31;4995049;28;20643;-74
2022/10/19 07:53:16;;;;;;;16.63;12.63;;;;;;;17.62;82.56;101241.44;4976196;28;23413;-76
2022/10/19 07:55:41;;;;;;;17.30;11.60;;;;;;;17.66;82.43;101241.72;4993146;28;20442;-79
2022/10/19 07:58:07;;;;;;;19.87;12.53;;;;;;;17.68;82.24;101242.28;4985937;28;20446;-74
2022/10/19 08:00:32;;;;;;;15.85;11.30;;;;;;;17.56;82.83;101241.69;4985605;28;20406;-75
2022/10/19 08:02:57;;;;;;;15.97;12.50;;;;;;;17.54;83.05;101241.94;4984991;28;20414;-75
2022/10/19 08:05:22;;;;;;;17.40;12.60;;;;;;;17.49;83.10;101249.31;4985476;28;20402;-75
2022/10/19 08:07:48;;;;;;;16.10;11.57;;;;;;;17.47;83.28;101246.88;4982061;28;20532;-75
2022/10/19 08:10:13;;;;;;;15.82;11.18;;;;;;;17.55;82.87;101234.56;4980050;28;20445;-75
2022/10/19 08:12:38;;;;;;;14.63;10.67;;;;;;;17.60;82.62;101237.31;4984827;28;20410;-75
2022/10/19 08:15:05;;;;;;;16.77;10.70;;;;;;;17.58;82.57;101248.53;4982751;28;20406;-75
2022/10/19 08:17:33;;;;;;;15.10;10.68;;;;;;;17.53;82.67;101248.50;4982086;28;20742;-75
2022/10/19 08:19:59;;;;;;;13.02;10.60;;;;;;;17.53;82.84;101247.69;4987108;28;20476;-75
2022/10/19 08:22:24;;;;;;;18.17;10.50;;;;;;;17.59;82.73;101241.16;4970639;28;20414;-76
2022/10/19 08:24:49;;;;;;;18.53;11.17;;;;;;;17.68;82.47;101241.44;4985028;28;20422;-75
2022/10/19 08:27:14;;;;;;;12.50;10.83;;;;;;;17.61;82.56;101234.31;4985444;28;20396;-75
2022/10/19 08:29:40;;;;;;;17.07;11.80;;;;;;;17.57;82.63;101229.66;4986500;28;20394;-75
2022/10/19 08:32:05;;;;;;;24.27;14.60;;;;;;;17.57;82.65;101233.22;4985933;28;20490;-74
2022/10/19 08:34:32;;;;;;;18.97;12.17;;;;;;;17.62;82.49;101237.84;4986962;28;20461;-75
2022/10/19 08:36:57;;;;;;;21.27;13.97;;;;;;;17.62;82.27;101230.47;4982926;28;20499;-74
2022/10/19 08:39:23;;;;;;;22.30;14.93;;;;;;;17.66;82.20;101227.19;4984245;28;20500;-74
2022/10/19 08:42:15;;;;;;;17.47;14.00;;;;;;;17.68;82.17;101239.53;4991362;28;20481;-75
2022/10/19 08:45:21;;;;;;;20.70;14.35;;;;;;;17.67;81.93;101223.34;4989026;28;20436;-75
2022/10/19 08:48:09;;;;;;;19.60;12.55;;;;;;;17.67;82.19;101224.19;4986678;28;20403;-75
2022/10/19 08:50:41;;;;;;;19.67;14.27;;;;;;;17.67;81.93;101220.59;4985188;28;20456;-75
2022/10/19 08:53:13;;;;;;;29.02;14.30;;;;;;;17.68;82.01;101219.53;4992667;28;20407;-75
2022/10/19 08:56:08;;;;;;;20.40;13.88;;;;;;;17.63;82.34;101215.66;4985089;28;20406;-75
2022/10/19 08:59:12;;;;;;;13.85;11.23;;;;;;;17.81;81.65;101219.81;4986708;28;20852;-75
2022/10/19 09:01:50;;;;;;;13.52;10.75;;;;;;;17.79;81.64;101221.16;4989418;28;20442;-75
2022/10/19 09:04:34;;;;;;;21.33;14.55;;;;;;;17.83;81.32;101209.38;4991375;28;20438;-75
2022/10/19 09:07:23;;;;;;;12.27;10.97;;;;;;;17.93;81.13;101216.75;4984867;28;20392;-75
2022/10/19 09:09:55;;;;;;;12.07;10.00;;;;;;;17.97;80.52;101215.94;4992018;28;20447;-75
2022/10/19 09:12:32;;;;;;;13.55;9.70;;;;;;;18.00;80.42;101214.56;4986740;28;20414;-75
2022/10/19 09:15:06;;;;;;;12.68;10.25;;;;;;;18.06;80.30;101214.28;4990566;28;20429;-75
2022/10/19 09:17:32;;;;;;;10.90;9.47;;;;;;;18.10;80.24;101212.66;4982632;28;20463;-75
2022/10/19 09:20:12;;;;;;;15.38;9.75;;;;;;;18.04;80.31;101210.19;4974993;28;20878;-75
2022/10/19 09:22:39;;;;;;;16.65;9.77;;;;;;;17.98;80.13;101203.84;4987777;28;20422;-75
2022/10/19 09:25:18;;;;;;;16.95;9.90;;;;;;;17.99;80.13;101213.75;4991885;28;20422;-75
2022/10/19 09:27:47;;;;;;;14.60;9.48;;;;;;;18.09;80.10;101205.50;4985441;28;20421;-75
2022/10/19 09:30:17;;;;;;;10.55;9.05;;;;;;;18.23;79.70;101205.75;4989211;28;20412;-75
2022/10/19 09:32:43;;;;;;;13.32;9.50;;;;;;;18.39;78.86;101203.78;4990317;28;20448;-75
2022/10/19 09:35:27;;;;;;;10.70;8.83;;;;;;;18.47;78.86;101208.72;4991302;28;20468;-75
2022/10/19 09:37:54;;;;;;;9.83;8.83;;;;;;;18.43;78.55;101200.22;4985041;28;20489;-74
2022/10/19 09:40:26;;;;;;;11.60;9.77;;;;;;;18.54;78.39;101206.53;4991754;28;20446;-74
2022/10/19 09:43:02;;;;;;;11.63;9.15;;;;;;;18.65;77.85;101203.47;4984457;28;20774;-75
2022/10/19 09:45:43;;;;;;;12.48;8.70;;;;;;;18.63;77.39;101200.19;4988606;28;20408;-75
2022/10/19 09:48:19;;;;;;;11.20;9.80;;;;;;;18.84;77.19;101206.41;4987711;28;20830;-75
2022/10/19 09:50:52;;;;;;;9.82;8.77;;;;;;;19.36;75.48;101188.53;4990276;28;20437;-75
2022/10/19 09:53:20;;;;;;;10.10;8.13;;;;;;;19.71;73.95;101187.47;4991380;28;20429;-75
2022/10/19 09:55:59;;;;;;;11.25;8.93;;;;;;;19.91;73.12;101184.53;4983996;28;20419;-75
2022/10/19 09:58:27;;;;;;;11.32;8.18;;;;;;;19.99;72.58;101189.44;4983177;28;20497;-75
2022/10/19 10:00:54;;;;;;;11.57;8.63;;;;;;;20.06;72.23;101189.88;4983326;28;20427;-75
2022/10/19 10:03:22;;;;;;;9.82;8.82;;;;;;;20.20;71.42;101194.44;4989296;28;20773;-74
2022/10/19 10:05:48;;;;;;;11.07;8.40;;;;;;;20.43;70.58;101197.53;4981464;28;20387;-74
2022/10/19 10:08:17;;;;;;;12.02;8.13;;;;;;;20.22;70.98;101196.09;4980046;28;20893;-75
2022/10/19 10:10:45;;;;;;;13.02;8.13;;;;;;;19.98;71.27;101194.13;4968049;28;20758;-74
2022/10/19 10:13:17;;;;;;;10.25;8.50;;;;;;;19.96;71.58;101192.75;4991350;28;20410;-75
2022/10/19 10:15:46;;;;;;;8.82;8.00;;;;;;;20.13;70.99;101190.38;4991102;28;20534;-75
2022/10/19 10:18:17;;;;;;;9.27;7.83;;;;;;;20.36;70.02;101183.28;4989781;28;20409;-75
2022/10/19 10:20:59;;;;;;;10.00;7.50;;;;;;;20.44;69.40;101172.47;4995509;28;20486;-75
2022/10/19 10:23:30;;;;;;;10.80;7.30;;;;;;;20.22;70.26;101180.38;4987929;28;20429;-75
2022/10/19 10:25:57;;;;;;;13.70;8.00;;;;;;;20.06;70.62;101173.38;4969288;28;20901;-74
2022/10/19 10:28:25;;;;;;;8.52;7.68;;;;;;;20.00;70.80;101177.28;4992207;28;20426;-75
2022/10/19 10:31:09;;;;;;;10.60;7.95;;;;;;;19.97;71.16;101175.13;4976977;28;20414;-75
2022/10/19 10:33:36;;;;;;;9.38;8.38;;;;;;;20.03;70.71;101179.47;4990820;28;20416;-75
2022/10/19 10:36:08;;;;;;;9.05;8.15;;;;;;;20.08;70.19;101172.00;4989956;28;20392;-76
2022/10/19 10:38:38;;;;;;;12.50;9.27;;;;;;;20.07;70.37;101167.59;4989864;28;20447;-75
2022/10/19 10:41:11;;;;;;;11.10;8.80;;;;;;;20.08;70.50;101161.00;4992237;28;20406;-74
2022/10/19 10:43:47;;;;;;;24.83;11.05;;;;;;;20.06;70.97;101162.38;4994796;28;20778;-75
2022/10/19 10:46:18;;;;;;;9.52;7.88;;;;;;;20.14;70.99;101156.25;4993850;28;20837;-75
2022/10/19 10:48:52;;;;;;;8.80;7.90;;;;;;;20.14;70.92;101156.25;4988800;28;20410;-74
2022/10/19 10:51:23;;;;;;;9.32;8.23;;;;;;;20.13;71.09;101151.84;4976790;28;20444;-74
2022/10/19 10:53:49;;;;;;;11.70;8.73;;;;;;;20.00;71.22;101153.34;4992614;28;20410;-73
2022/10/19 10:56:30;;;;;;;8.83;7.77;;;;;;;19.89;71.49;101154.56;4994180;28;20437;-74
2022/10/19 10:59:05;;;;;;;8.18;7.30;;;;;;;19.82;71.55;101142.28;4986267;28;20500;-74
2022/10/19 11:01:38;;;;;;;10.30;7.47;;;;;;;19.87;71.82;101136.72;4990819;28;20501;-74
2022/10/19 11:04:09;;;;;;;17.48;7.50;;;;;;;20.09;71.09;101134.28;4992890;28;20729;-74
2022/10/19 11:06:42;;;;;;;9.02;7.57;;;;;;;20.10;70.82;101134.00;4993995;28;20423;-75
2022/10/19 11:09:17;;;;;;;7.72;6.93;;;;;;;20.08;70.65;101140.91;4977005;28;20433;-74
2022/10/19 11:11:46;;;;;;;7.70;6.78;;;;;;;20.06;70.74;101127.44;4992700;28;20410;-74
2022/10/19 11:14:39;;;;;;;12.35;9.05;;;;;;;19.94;70.96;101127.03;4973881;28;20424;-75
2022/10/19 11:17:13;;;;;;;11.13;6.32;;;;;;;20.02;70.62;101118.09;4991349;28;20774;-76
2022/10/19 11:19:43;;;;;;;7.03;5.78;;;;;;;20.10;69.82;101122.16;4990455;28;20844;-75
2022/10/19 11:22:28;;;;;;;6.25;5.53;;;;;;;20.17;69.83;101122.63;4987104;28;20747;-75